Time;durP1;ratioP1;P1;durP2;ratioP2;P2;SDS_P1;SDS_P2;PMS_P1;PMS_P2;Temp;Humidity;BMP_temperature;BMP_pressure;BME280_temperature;BME280_humidity;BME280_pressure;Samples;Min_cycle;Max_cycle;Signal;HPM_P1;HPM_P2
2022/12/12 00:00:19;;;;;;;36.05;21.73;;;0.40;99.90;;;;;;4960293;28;90231;-33
2022/12/12 00:02:45;;;;;;;34.40;22.60;;;0.30;99.90;;;;;;4960568;28;89622;-31
2022/12/12 00:05:15;;;;;;;30.33;20.65;;;0.30;99.90;;;;;;4959962;28;90053;-32
2022/12/12 00:07:40;;;;;;;27.77;21.13;;;0.30;99.90;;;;;;4959545;28;90893;-32
2022/12/12 00:10:07;;;;;;;29.15;22.73;;;0.40;99.90;;;;;;4960088;28;89856;-31
2022/12/12 00:12:33;;;;;;;29.42;21.60;;;0.40;99.90;;;;;;4959738;28;90266;-33
2022/12/12 00:14:59;;;;;;;29.05;22.25;;;0.30;99.90;;;;;;4959326;28;90719;-34
2022/12/12 00:17:25;;;;;;;31.35;22.10;;;0.40;99.90;;;;;;4960433;28;90490;-33
2022/12/12 00:19:50;;;;;;;29.75;20.13;;;0.30;99.90;;;;;;4959468;28;87538;-33
2022/12/12 00:22:16;;;;;;;32.25;22.50;;;0.40;99.90;;;;;;4960241;28;90109;-31
2022/12/12 00:24:42;;;;;;;28.63;22.70;;;0.30;99.90;;;;;;4958864;28;89675;-33
2022/12/12 00:27:08;;;;;;;34.47;22.48;;;0.40;99.90;;;;;;4959730;28;89765;-34
2022/12/12 00:29:34;;;;;;;35.80;23.23;;;0.40;99.90;;;;;;4960368;28;88860;-33
2022/12/12 00:32:00;;;;;;;33.65;22.98;;;0.40;99.90;;;;;;4959621;28;89862;-37
2022/12/12 00:34:25;;;;;;;32.78;22.48;;;0.40;99.90;;;;;;4959507;28;90191;-34
2022/12/12 00:36:51;;;;;;;32.72;21.45;;;0.40;99.90;;;;;;4960123;28;90692;-31
2022/12/12 00:39:18;;;;;;;33.92;23.42;;;0.40;99.90;;;;;;4959128;28;89673;-31
2022/12/12 00:41:44;;;;;;;32.80;24.45;;;0.40;99.90;;;;;;4960169;28;90081;-31
2022/12/12 00:44:10;;;;;;;34.42;24.02;;;0.40;99.90;;;;;;4959138;28;89604;-31
2022/12/12 00:46:35;;;;;;;34.85;24.10;;;0.40;99.90;;;;;;4959119;28;89789;-33
2022/12/12 00:49:01;;;;;;;38.80;25.17;;;0.40;99.90;;;;;;4959242;28;89681;-34
2022/12/12 00:51:28;;;;;;;41.90;26.42;;;0.30;99.90;;;;;;4959400;28;90242;-31
2022/12/12 00:53:55;;;;;;;41.45;27.00;;;0.40;99.90;;;;;;4959868;28;89701;-32
2022/12/12 00:56:22;;;;;;;34.25;25.65;;;0.40;99.90;;;;;;4958419;28;89552;-32
2022/12/12 00:58:48;;;;;;;45.00;28.80;;;0.30;99.90;;;;;;4959090;28;89045;-31
2022/12/12 01:01:18;;;;;;;35.97;25.45;;;0.30;99.90;;;;;;4959109;28;90120;-35
2022/12/12 01:03:45;;;;;;;35.78;25.40;;;0.30;99.90;;;;;;4958717;28;90613;-35
2022/12/12 01:06:11;;;;;;;37.92;24.98;;;0.30;99.90;;;;;;4959651;28;90515;-32
2022/12/12 01:08:38;;;;;;;42.00;24.33;;;0.30;99.90;;;;;;4958696;28;89119;-34
2022/12/12 01:11:05;;;;;;;33.55;25.13;;;0.30;99.90;;;;;;4959101;28;90139;-31
2022/12/12 01:13:31;;;;;;;33.45;23.63;;;0.30;99.90;;;;;;4958669;28;89546;-35
2022/12/12 01:15:57;;;;;;;33.90;24.85;;;0.40;99.90;;;;;;4958781;28;89517;-32
2022/12/12 01:18:23;;;;;;;40.53;23.55;;;0.40;99.90;;;;;;4960090;28;87762;-33
2022/12/12 01:20:49;;;;;;;32.78;23.63;;;0.40;99.90;;;;;;4958740;28;90178;-33
2022/12/12 01:23:14;;;;;;;36.28;24.85;;;0.40;99.90;;;;;;4958751;28;89639;-32
2022/12/12 01:25:40;;;;;;;35.20;24.45;;;0.40;99.90;;;;;;4958977;28;89529;-30
2022/12/12 01:28:06;;;;;;;29.55;21.73;;;0.40;99.90;;;;;;4958720;28;89876;-32
2022/12/12 01:30:31;;;;;;;28.45;21.15;;;0.40;99.90;;;;;;4959063;28;90051;-32
2022/12/12 01:32:57;;;;;;;37.15;23.08;;;0.40;99.90;;;;;;4958824;28;90631;-32
2022/12/12 01:35:24;;;;;;;32.50;22.33;;;0.40;99.90;;;;;;4958362;28;90149;-32
2022/12/12 01:37:50;;;;;;;29.53;21.50;;;0.30;99.90;;;;;;4959554;28;89761;-32
2022/12/12 01:40:23;;;;;;;30.55;21.17;;;0.30;99.90;;;;;;4958600;28;90081;-34
2022/12/12 01:42:49;;;;;;;36.65;22.92;;;0.40;99.90;;;;;;4959291;28;89263;-33
2022/12/12 01:45:52;;;;;;;31.67;23.20;;;0.40;99.90;;;;;;4958494;28;89594;-33
2022/12/12 01:48:19;;;;;;;31.08;21.17;;;0.40;99.90;;;;;;4958674;28;88749;-34
2022/12/12 01:50:45;;;;;;;26.83;21.20;;;0.40;99.90;;;;;;4958222;28;90148;-33
2022/12/12 01:53:14;;;;;;;39.38;23.27;;;0.40;99.90;;;;;;4958251;28;90864;-34
2022/12/12 01:55:40;;;;;;;28.52;20.77;;;0.40;99.90;;;;;;4958089;28;90184;-32
2022/12/12 01:58:06;;;;;;;31.48;20.45;;;0.40;99.90;;;;;;4958771;28;88840;-34
2022/12/12 02:00:32;;;;;;;31.08;23.25;;;0.40;99.90;;;;;;4957863;28;90294;-33
2022/12/12 02:02:57;;;;;;;34.55;21.38;;;0.40;99.90;;;;;;4953431;28;89381;-32
2022/12/12 02:05:45;;;;;;;32.35;21.45;;;0.40;99.90;;;;;;4958496;28;89832;-35
2022/12/12 02:08:13;;;;;;;28.20;20.60;;;0.40;99.90;;;;;;4958722;28;88195;-32
2022/12/12 02:10:39;;;;;;;30.33;21.43;;;0.40;99.90;;;;;;4958183;28;91252;-32
2022/12/12 02:13:12;;;;;;;29.60;21.42;;;0.40;99.90;;;;;;4958708;28;89765;-33
2022/12/12 02:15:51;;;;;;;27.90;21.02;;;0.40;99.90;;;;;;4958107;28;88921;-33
2022/12/12 02:18:20;;;;;;;;;;;0.40;99.90;;;;;;4958337;28;89132;-35
2022/12/12 02:21:11;;;;;;;32.22;20.38;;;0.40;99.90;;;;;;4962583;28;89978;-34
2022/12/12 02:24:06;;;;;;;30.88;20.52;;;0.40;99.90;;;;;;4961388;28;90922;-32
2022/12/12 02:26:49;;;;;;;28.90;21.27;;;0.40;99.90;;;;;;4961511;28;89786;-32
2022/12/12 02:29:39;;;;;;;37.78;22.17;;;0.40;99.90;;;;;;4961801;28;88323;-34
2022/12/12 02:32:28;;;;;;;33.17;21.90;;;0.40;99.90;;;;;;4961817;28;90477;-32
2022/12/12 02:35:09;;;;;;;35.53;23.48;;;0.40;99.90;;;;;;4961146;28;89967;-33
2022/12/12 02:37:44;;;;;;;30.88;22.70;;;0.40;99.90;;;;;;4960960;28;89765;-32
2022/12/12 02:40:26;;;;;;;24.92;19.95;;;0.40;99.90;;;;;;4961805;28;89306;-33
2022/12/12 02:43:37;;;;;;;29.98;21.75;;;0.40;99.90;;;;;;4961144;28;90469;-34
2022/12/12 02:46:20;;;;;;;33.17;21.27;;;0.40;99.90;;;;;;4915226;28;92388;-33
2022/12/12 02:48:53;;;;;;;30.08;20.17;;;0.40;99.90;;;;;;4960832;28;93013;-33
2022/12/12 02:51:21;;;;;;;31.23;22.35;;;0.40;99.90;;;;;;4960776;28;88811;-33
2022/12/12 02:53:46;;;;;;;25.80;21.63;;;0.40;99.90;;;;;;4961222;28;90336;-35
2022/12/12 02:56:43;;;;;;;30.92;22.17;;;0.40;99.90;;;;;;4961592;28;88559;-31
2022/12/12 02:59:11;;;;;;;32.75;22.95;;;0.40;99.90;;;;;;4961082;28;89671;-33
2022/12/12 03:01:44;;;;;;;29.30;19.80;;;0.30;99.90;;;;;;4960586;28;89003;-30
2022/12/12 03:07:48;;;;;;;24.85;19.67;;;0.40;99.90;;;;;;4899922;28;91408;-38
2022/12/12 03:10:36;;;;;;;31.35;20.40;;;0.40;99.90;;;;;;4961107;28;89621;-35
2022/12/12 03:13:25;;;;;;;32.97;22.83;;;0.40;99.90;;;;;;4961051;28;89597;-33
2022/12/12 03:16:17;;;;;;;33.20;22.48;;;0.40;99.90;;;;;;4960952;28;89856;-34
2022/12/12 03:18:48;;;;;;;30.50;22.60;;;0.30;99.90;;;;;;4959814;28;89998;-32
2022/12/12 03:21:23;;;;;;;31.10;22.02;;;0.40;99.90;;;;;;4960552;28;89636;-34
2022/12/12 03:23:56;;;;;;;35.88;23.02;;;0.40;99.90;;;;;;4961029;28;88708;-32
2022/12/12 03:26:30;;;;;;;34.90;24.23;;;0.40;99.90;;;;;;4959856;28;90351;-33
2022/12/12 03:29:13;;;;;;;33.47;22.08;;;0.40;99.90;;;;;;4960746;28;90022;-32
2022/12/12 03:31:44;;;;;;;33.33;23.73;;;0.30;99.90;;;;;;4959935;28;89515;-31
2022/12/12 03:34:19;;;;;;;34.97;22.20;;;0.30;99.90;;;;;;4961158;28;90178;-33
2022/12/12 03:36:49;;;;;;;33.80;21.73;;;0.40;99.90;;;;;;4960815;28;89731;-32
2022/12/12 03:39:25;;;;;;;32.33;24.55;;;0.40;99.90;;;;;;4960277;28;90683;-33
2022/12/12 03:41:56;;;;;;;30.38;21.73;;;0.40;99.90;;;;;;4959233;28;90754;-31
2022/12/12 03:44:31;;;;;;;33.10;21.65;;;0.40;99.90;;;;;;4961154;28;89779;-31
2022/12/12 03:47:04;;;;;;;28.48;19.40;;;0.40;99.90;;;;;;4960458;28;90121;-31
2022/12/12 03:49:53;;;;;;;33.60;20.58;;;0.40;99.90;;;;;;4960122;28;89387;-31
2022/12/12 03:52:24;;;;;;;26.98;20.10;;;0.40;99.90;;;;;;4960519;28;89448;-32
2022/12/12 03:55:06;;;;;;;28.48;19.55;;;0.40;99.90;;;;;;4960363;28;88272;-32
2022/12/12 03:57:36;;;;;;;33.92;21.55;;;0.40;99.90;;;;;;4960224;28;90417;-32
2022/12/12 04:00:14;;;;;;;24.63;17.45;;;0.40;99.90;;;;;;4960154;28;89141;-34
2022/12/12 04:02:50;;;;;;;27.27;19.98;;;0.40;99.90;;;;;;4959874;28;90125;-35
2022/12/12 04:08:33;;;;;;;23.67;17.98;;;0.40;99.90;;;;;;4960376;28;89102;-34
2022/12/12 04:14:22;;;;;;;30.75;17.95;;;0.40;99.90;;;;;;4959883;28;89730;-32
2022/12/12 04:16:51;;;;;;;24.60;17.30;;;0.40;99.90;;;;;;4959975;28;89194;-35
2022/12/12 04:25:10;;;;;;;22.55;17.35;;;0.40;99.90;;;;;;4959557;28;89836;-33
2022/12/12 04:27:42;;;;;;;27.92;17.55;;;0.40;99.90;;;;;;4959122;28;88344;-32
2022/12/12 04:30:10;;;;;;;24.80;17.70;;;0.40;99.90;;;;;;4959482;28;90227;-32
2022/12/12 04:32:44;;;;;;;26.95;17.40;;;0.40;99.90;;;;;;4958434;28;90253;-31
2022/12/12 04:35:21;;;;;;;26.52;18.38;;;0.40;99.90;;;;;;4960010;28;91849;-34
2022/12/12 04:37:53;;;;;;;28.88;18.48;;;0.40;99.90;;;;;;4959340;28;88450;-32
2022/12/12 04:40:27;;;;;;;26.38;17.48;;;0.40;99.90;;;;;;4959937;28;90054;-33
2022/12/12 04:43:04;;;;;;;23.42;15.57;;;0.40;99.90;;;;;;4958948;28;89666;-31
2022/12/12 04:45:37;;;;;;;25.77;18.90;;;0.50;99.90;;;;;;4959743;28;89644;-35
2022/12/12 04:48:05;;;;;;;27.02;17.98;;;0.40;99.90;;;;;;4959192;28;88442;-33
2022/12/12 04:50:32;;;;;;;;;;;0.40;99.90;;;;;;4959817;28;88975;-32
2022/12/12 04:53:00;;;;;;;22.92;15.43;;;0.40;99.90;;;;;;4961577;28;89636;-33
2022/12/12 04:55:35;;;;;;;;;;;0.40;99.90;;;;;;4960515;28;88798;-34
2022/12/12 04:58:02;;;;;;;22.95;17.15;;;0.40;99.90;;;;;;4961647;28;89774;-30
2022/12/12 05:00:52;;;;;;;24.40;16.30;;;0.40;99.90;;;;;;4958687;28;89388;-34
2022/12/12 05:03:22;;;;;;;29.00;17.95;;;0.50;99.90;;;;;;4940303;28;89560;-32
2022/12/12 05:05:56;;;;;;;26.20;17.38;;;0.40;99.90;;;;;;4959158;28;89206;-32
2022/12/12 05:08:24;;;;;;;26.90;17.75;;;0.40;99.90;;;;;;4959299;28;89010;-32
2022/12/12 05:10:54;;;;;;;23.08;16.55;;;0.50;99.90;;;;;;4959707;28;89934;-31
2022/12/12 05:13:23;;;;;;;33.65;18.67;;;0.40;99.90;;;;;;4959400;28;89215;-31
2022/12/12 05:15:53;;;;;;;26.65;19.02;;;0.40;99.90;;;;;;4959013;28;90032;-34
2022/12/12 05:18:19;;;;;;;25.65;16.85;;;0.40;99.90;;;;;;4959597;28;90016;-33
2022/12/12 05:20:45;;;;;;;28.77;17.67;;;0.50;99.90;;;;;;4958370;28;90250;-33
2022/12/12 05:23:10;;;;;;;32.35;19.02;;;0.40;99.90;;;;;;4958602;28;90877;-33
2022/12/12 05:25:36;;;;;;;25.67;19.50;;;0.40;99.90;;;;;;4958527;28;90614;-31
2022/12/12 05:28:02;;;;;;;24.58;18.63;;;0.40;99.90;;;;;;4959315;28;89632;-35
2022/12/12 05:30:28;;;;;;;25.58;18.13;;;0.40;99.90;;;;;;4958470;28;89987;-34
2022/12/12 05:32:53;;;;;;;22.50;16.77;;;0.40;99.90;;;;;;4959068;28;89489;-33
2022/12/12 05:35:19;;;;;;;25.75;17.92;;;0.40;99.90;;;;;;4959353;28;89276;-32
2022/12/12 05:37:45;;;;;;;28.20;18.92;;;0.40;99.90;;;;;;4958334;28;88599;-34
2022/12/12 05:40:12;;;;;;;32.53;17.77;;;0.40;99.90;;;;;;4959300;28;90407;-32
2022/12/12 05:42:38;;;;;;;23.88;18.38;;;0.40;99.90;;;;;;4958663;28;89161;-32
2022/12/12 05:45:06;;;;;;;25.13;17.55;;;0.40;99.90;;;;;;4958716;28;89724;-33
2022/12/12 05:47:32;;;;;;;25.35;17.55;;;0.40;99.90;;;;;;4958527;28;90333;-32
2022/12/12 05:49:57;;;;;;;26.55;17.83;;;0.40;99.90;;;;;;4958233;28;90320;-33
2022/12/12 05:52:23;;;;;;;28.73;18.55;;;0.40;99.90;;;;;;4958363;28;89632;-34
2022/12/12 05:54:49;;;;;;;24.25;17.70;;;0.40;99.90;;;;;;4960265;28;89879;-33
2022/12/12 05:57:16;;;;;;;26.88;18.83;;;0.40;99.90;;;;;;4962641;28;89271;-30
2022/12/12 05:59:42;;;;;;;23.45;17.80;;;0.40;99.90;;;;;;4961475;28;89498;-32
2022/12/12 06:02:07;;;;;;;24.95;17.33;;;0.40;99.90;;;;;;4962339;28;89738;-32
2022/12/12 06:04:33;;;;;;;27.92;19.67;;;0.40;99.90;;;;;;4961503;28;88248;-33
2022/12/12 06:06:59;;;;;;;26.17;19.58;;;0.40;99.90;;;;;;4962526;28;89356;-34
2022/12/12 06:09:25;;;;;;;29.73;18.95;;;0.40;99.90;;;;;;4960376;28;90240;-34
2022/12/12 06:11:51;;;;;;;27.33;18.60;;;0.40;99.90;;;;;;4969266;28;90683;-33
2022/12/12 06:14:16;;;;;;;27.42;19.52;;;0.40;99.90;;;;;;4971455;28;91137;-31
2022/12/12 06:16:42;;;;;;;26.05;18.55;;;0.40;99.90;;;;;;4975294;28;89255;-32
2022/12/12 06:19:07;;;;;;;21.30;17.15;;;0.30;99.90;;;;;;4971257;28;89080;-32
2022/12/12 06:21:33;;;;;;;25.58;17.40;;;0.40;99.90;;;;;;4972125;28;90526;-32
2022/12/12 06:23:59;;;;;;;24.55;18.90;;;0.30;99.90;;;;;;4966748;28;90237;-33
2022/12/12 06:26:24;;;;;;;25.60;19.02;;;0.30;99.90;;;;;;4971970;28;89292;-33
2022/12/12 06:28:50;;;;;;;29.75;19.77;;;0.30;99.90;;;;;;4974312;28;90273;-30
2022/12/12 06:31:16;;;;;;;21.88;16.38;;;0.30;99.90;;;;;;4970975;28;89858;-32
2022/12/12 06:33:43;;;;;;;22.83;16.25;;;0.30;99.90;;;;;;4974956;28;90004;-32
2022/12/12 06:36:22;;;;;;;26.20;19.40;;;0.30;99.90;;;;;;4970400;28;89710;-31
2022/12/12 06:38:52;;;;;;;27.60;20.30;;;0.30;99.90;;;;;;4961233;28;88985;-35
2022/12/12 06:41:19;;;;;;;25.38;17.55;;;0.30;99.90;;;;;;4970327;28;89301;-33
2022/12/12 06:43:45;;;;;;;29.38;17.92;;;0.30;99.90;;;;;;4975444;28;89525;-33
2022/12/12 06:46:16;;;;;;;22.70;17.25;;;0.40;99.90;;;;;;4971466;28;88195;-34
2022/12/12 06:48:42;;;;;;;28.77;17.92;;;0.40;99.90;;;;;;4968432;28;90114;-34
2022/12/12 06:51:09;;;;;;;24.48;16.80;;;0.40;99.90;;;;;;4960902;28;89870;-30
2022/12/12 06:53:36;;;;;;;21.92;15.65;;;0.40;99.90;;;;;;4961398;28;90284;-31
2022/12/12 06:56:06;;;;;;;27.02;18.25;;;0.40;99.90;;;;;;4960186;28;87659;-32
2022/12/12 06:58:32;;;;;;;25.45;19.00;;;0.30;99.90;;;;;;4963643;28;91176;-33
2022/12/12 07:00:57;;;;;;;24.23;18.10;;;0.30;99.90;;;;;;4962376;28;90813;-34
2022/12/12 07:03:23;;;;;;;23.92;19.25;;;0.30;99.90;;;;;;4966296;28;90646;-32
2022/12/12 07:05:48;;;;;;;24.00;17.58;;;0.30;99.90;;;;;;4963039;28;88783;-32
2022/12/12 07:08:15;;;;;;;30.55;19.90;;;0.20;99.90;;;;;;4965424;28;90154;-33
2022/12/12 07:10:41;;;;;;;26.65;19.00;;;0.20;99.90;;;;;;4960818;28;89783;-31
2022/12/12 07:13:07;;;;;;;26.33;18.83;;;0.20;99.90;;;;;;4963487;28;90010;-33
2022/12/12 07:15:32;;;;;;;29.52;19.95;;;0.10;99.90;;;;;;4965439;28;88386;-33
2022/12/12 07:17:58;;;;;;;27.02;19.90;;;0.10;99.90;;;;;;4962991;28;90208;-34
2022/12/12 07:20:24;;;;;;;30.13;20.80;;;0.10;99.90;;;;;;4965550;28;89802;-33
2022/12/12 07:22:50;;;;;;;29.98;20.75;;;0.00;99.90;;;;;;4963048;28;91133;-30
2022/12/12 07:25:15;;;;;;;28.80;21.45;;;-0.10;99.90;;;;;;4964746;28;89438;-31
2022/12/12 07:27:41;;;;;;;26.23;20.35;;;-0.10;99.90;;;;;;4962478;28;90068;-33
2022/12/12 07:30:07;;;;;;;26.77;20.25;;;-0.20;99.90;;;;;;4962968;28;89695;-33
2022/12/12 07:32:33;;;;;;;26.30;20.35;;;-0.30;99.90;;;;;;4964710;28;90755;-32
2022/12/12 07:34:59;;;;;;;31.77;21.30;;;-0.30;99.90;;;;;;4963760;28;87467;-31
2022/12/12 07:37:25;;;;;;;39.17;26.17;;;-0.40;99.90;;;;;;4965286;28;90038;-35
2022/12/12 07:39:51;;;;;;;37.55;25.48;;;-0.40;99.90;;;;;;4961703;28;89859;-32
2022/12/12 07:42:16;;;;;;;32.40;22.63;;;-0.50;99.90;;;;;;4957837;28;89860;-32
2022/12/12 07:44:42;;;;;;;31.58;21.70;;;-0.50;99.90;;;;;;4962990;28;88941;-32
2022/12/12 07:47:10;;;;;;;29.88;20.77;;;-0.60;99.90;;;;;;4963462;28;90620;-32
2022/12/12 07:49:36;;;;;;;26.70;18.92;;;-0.60;99.90;;;;;;4957353;28;89527;-31
2022/12/12 07:52:02;;;;;;;36.55;23.65;;;-0.70;99.90;;;;;;4957847;28;90739;-32
2022/12/12 07:54:28;;;;;;;26.00;21.50;;;-0.70;99.90;;;;;;4958097;28;87834;-31
2022/12/12 07:56:53;;;;;;;28.65;19.95;;;-0.70;99.90;;;;;;4957782;28;91046;-34
2022/12/12 07:59:19;;;;;;;28.02;20.60;;;-0.80;99.90;;;;;;4958589;28;89697;-31
2022/12/12 08:01:45;;;;;;;28.00;20.42;;;-0.80;99.90;;;;;;4957884;28;90297;-33
2022/12/12 08:04:10;;;;;;;35.67;22.77;;;-0.90;99.90;;;;;;4958645;28;89098;-32
2022/12/12 08:06:36;;;;;;;30.80;21.83;;;-0.90;99.90;;;;;;4958240;28;90295;-31
2022/12/12 08:09:01;;;;;;;35.45;23.65;;;-0.90;99.90;;;;;;4958113;28;89799;-33
2022/12/12 08:11:27;;;;;;;25.02;21.52;;;-0.90;99.90;;;;;;4957432;28;89561;-34
2022/12/12 08:13:53;;;;;;;30.23;21.83;;;-1.00;99.90;;;;;;4957723;28;88970;-33
2022/12/12 08:16:25;;;;;;;28.42;21.80;;;-1.00;99.90;;;;;;4957987;28;90170;-31
2022/12/12 08:18:55;;;;;;;28.02;20.73;;;-1.00;99.90;;;;;;4957779;28;90664;-30
2022/12/12 08:21:21;;;;;;;31.27;23.15;;;-1.00;99.90;;;;;;4957873;28;89307;-34
2022/12/12 08:23:47;;;;;;;31.10;21.38;;;-1.00;99.90;;;;;;4951376;28;88162;-33
2022/12/12 08:26:14;;;;;;;32.55;21.33;;;-1.00;99.90;;;;;;4965072;28;90142;-32
2022/12/12 08:28:43;;;;;;;30.80;21.47;;;-1.10;99.90;;;;;;4970746;28;88039;-35
2022/12/12 08:31:11;;;;;;;33.95;23.48;;;-1.10;99.90;;;;;;4964982;28;89174;-32
2022/12/12 08:33:36;;;;;;;35.27;23.90;;;-1.10;99.90;;;;;;4970370;28;89472;-33
2022/12/12 08:36:11;;;;;;;33.22;24.42;;;-1.10;99.90;;;;;;4966271;28;90097;-31
2022/12/12 08:38:37;;;;;;;32.72;23.25;;;-1.10;99.90;;;;;;4968275;28;90654;-33
2022/12/12 08:41:03;;;;;;;29.73;22.08;;;-1.10;99.90;;;;;;4966576;28;90302;-31
2022/12/12 08:43:28;;;;;;;29.80;22.08;;;-1.10;99.90;;;;;;4960883;28;89179;-34
2022/12/12 08:46:01;;;;;;;31.52;23.77;;;-1.10;99.90;;;;;;4957258;28;90087;-33
2022/12/12 08:48:29;;;;;;;39.58;27.52;;;-1.10;99.90;;;;;;4958032;28;90338;-31
2022/12/12 08:50:55;;;;;;;40.05;29.08;;;-1.10;99.90;;;;;;4956959;28;89369;-32
2022/12/12 08:53:21;;;;;;;42.45;29.10;;;-1.20;99.90;;;;;;4956802;28;88925;-35
2022/12/12 08:55:47;;;;;;;34.30;22.95;;;-1.10;99.90;;;;;;4956002;28;90345;-34
2022/12/12 08:58:12;;;;;;;35.03;24.05;;;-1.20;99.90;;;;;;4957955;28;89387;-31
2022/12/12 09:00:38;;;;;;;35.75;24.42;;;-1.20;99.90;;;;;;4955642;28;90003;-34
2022/12/12 09:03:04;;;;;;;37.03;24.48;;;-1.20;99.90;;;;;;4957772;28;90149;-31
2022/12/12 09:05:29;;;;;;;35.03;25.50;;;-1.10;99.90;;;;;;4957529;28;90444;-33
2022/12/12 09:07:55;;;;;;;33.95;25.65;;;-1.10;99.90;;;;;;4957466;28;89667;-31
2022/12/12 09:10:21;;;;;;;32.65;23.73;;;-1.10;99.90;;;;;;4957367;28;89572;-32
2022/12/12 09:12:46;;;;;;;38.42;26.77;;;-1.00;99.90;;;;;;4956660;28;89408;-34
2022/12/12 09:15:13;;;;;;;35.88;25.15;;;-1.00;99.90;;;;;;4957120;28;89926;-32
2022/12/12 09:17:39;;;;;;;41.35;28.38;;;-0.90;99.90;;;;;;4956525;28;89877;-30
2022/12/12 09:20:05;;;;;;;38.50;26.38;;;-0.90;99.90;;;;;;4958133;28;89598;-33
2022/12/12 09:22:31;;;;;;;36.55;26.35;;;-0.90;99.90;;;;;;4956870;28;87976;-32
2022/12/12 09:24:56;;;;;;;32.10;26.05;;;-0.80;99.90;;;;;;4982261;22;90705;-33
2022/12/12 09:27:22;;;;;;;40.85;29.25;;;-0.70;99.90;;;;;;4936914;28;90090;-32
2022/12/12 09:29:47;;;;;;;45.15;32.70;;;-0.70;99.90;;;;;;4936607;28;90170;-33
2022/12/12 09:32:13;;;;;;;50.70;32.30;;;-0.60;99.90;;;;;;4937842;28;88536;-34
2022/12/12 09:34:39;;;;;;;40.78;30.70;;;-0.50;99.90;;;;;;4936903;28;90439;-32
2022/12/12 09:37:04;;;;;;;46.20;31.30;;;-0.50;99.90;;;;;;4936958;28;90282;-34
2022/12/12 09:39:30;;;;;;;47.75;31.60;;;-0.40;99.90;;;;;;4936797;28;89840;-32
2022/12/12 09:41:56;;;;;;;44.10;31.70;;;-0.40;99.90;;;;;;4936989;28;90060;-35
2022/12/12 09:44:24;;;;;;;43.78;30.00;;;-0.30;99.90;;;;;;4937176;28;90150;-31
2022/12/12 09:46:59;;;;;;;42.08;31.23;;;-0.30;99.90;;;;;;4936592;28;89849;-31
2022/12/12 09:49:36;;;;;;;48.80;31.75;;;-0.20;99.90;;;;;;4936395;28;89861;-34
2022/12/12 09:52:02;;;;;;;51.88;35.78;;;-0.20;99.90;;;;;;4936870;28;90481;-32
2022/12/12 09:54:28;;;;;;;64.82;39.65;;;-0.10;99.90;;;;;;4936574;28;89934;-31
2022/12/12 09:57:24;;;;;;;64.78;39.25;;;0.00;99.90;;;;;;4936835;28;89030;-34
2022/12/12 10:00:00;;;;;;;57.13;38.00;;;0.00;99.90;;;;;;4936669;28;89789;-34
2022/12/12 10:02:42;;;;;;;57.92;35.67;;;0.00;99.90;;;;;;4937629;28;88617;-31
2022/12/12 10:05:35;;;;;;;53.78;34.85;;;0.10;99.90;;;;;;4938761;28;90157;-31
2022/12/12 10:08:09;;;;;;;46.80;31.38;;;0.10;99.90;;;;;;4937428;28;89784;-33
2022/12/12 10:10:38;;;;;;;50.05;33.10;;;0.20;99.90;;;;;;4937405;28;89416;-35
2022/12/12 10:13:10;;;;;;;47.40;33.85;;;0.20;99.90;;;;;;4935899;28;89106;-33
2022/12/12 10:15:37;;;;;;;52.38;33.65;;;0.20;99.90;;;;;;4936961;28;90248;-32
2022/12/12 10:18:23;;;;;;;49.03;34.08;;;0.20;99.90;;;;;;4937381;28;90558;-31
2022/12/12 10:20:52;;;;;;;54.00;35.60;;;0.30;99.90;;;;;;4938713;28;90041;-31
2022/12/12 10:23:37;;;;;;;45.45;33.47;;;0.30;99.90;;;;;;4937056;28;89470;-32
2022/12/12 10:26:20;;;;;;;47.65;33.80;;;0.30;99.90;;;;;;4936334;28;90089;-31
2022/12/12 10:28:52;;;;;;;51.65;33.25;;;0.40;99.90;;;;;;4938301;28;89375;-31
2022/12/12 10:31:23;;;;;;;49.60;34.38;;;0.40;99.90;;;;;;4936129;28;90462;-32
2022/12/12 10:33:55;;;;;;;47.72;32.58;;;0.40;99.90;;;;;;4937734;28;88983;-32
2022/12/12 10:36:45;;;;;;;47.15;35.00;;;0.40;99.90;;;;;;4936651;28;90899;-31
2022/12/12 10:39:46;;;;;;;58.08;35.65;;;0.50;99.90;;;;;;4937404;28;89514;-32
2022/12/12 10:42:24;;;;;;;53.85;34.70;;;0.50;99.90;;;;;;4939876;28;91568;-31
2022/12/12 10:45:14;;;;;;;48.03;34.53;;;0.50;99.90;;;;;;4940047;28;90019;-33
2022/12/12 10:47:40;;;;;;;44.53;32.80;;;0.60;99.90;;;;;;4939580;28;90025;-34
2022/12/12 10:50:08;;;;;;;52.30;34.72;;;0.60;99.90;;;;;;4939154;28;91294;-32
2022/12/12 10:52:35;;;;;;;44.15;31.38;;;0.70;99.90;;;;;;4939643;28;88700;-31
2022/12/12 10:55:02;;;;;;;47.25;32.88;;;0.70;99.90;;;;;;4939952;28;88623;-35
2022/12/12 10:57:35;;;;;;;48.47;30.70;;;0.70;99.90;;;;;;4939183;28;90410;-34
2022/12/12 11:00:25;;;;;;;59.15;35.17;;;0.70;99.90;;;;;;4938712;28;90027;-35
2022/12/12 11:02:54;;;;;;;45.35;31.65;;;0.80;99.90;;;;;;4938921;28;89533;-34
2022/12/12 11:05:30;;;;;;;48.53;33.70;;;0.80;99.90;;;;;;4939618;28;89400;-31
2022/12/12 11:08:01;;;;;;;57.72;36.03;;;0.80;99.90;;;;;;4939970;28;91017;-33
2022/12/12 11:10:33;;;;;;;51.72;36.03;;;0.90;99.90;;;;;;4938869;28;89638;-34
2022/12/12 11:13:08;;;;;;;53.55;36.50;;;0.90;99.90;;;;;;4943423;28;90453;-31
2022/12/12 11:15:55;;;;;;;49.03;34.92;;;0.90;99.90;;;;;;4940125;28;89219;-33
2022/12/12 11:18:22;;;;;;;55.47;36.72;;;1.00;99.90;;;;;;4942973;28;90316;-34
2022/12/12 11:20:51;;;;;;;53.28;33.33;;;1.00;99.90;;;;;;4940418;28;89855;-31
2022/12/12 11:23:21;;;;;;;49.38;32.85;;;1.00;99.90;;;;;;4943183;28;88622;-34
2022/12/12 11:25:55;;;;;;;49.35;37.28;;;1.00;99.90;;;;;;4943124;28;88565;-32
2022/12/12 11:28:23;;;;;;;53.75;35.65;;;1.00;99.90;;;;;;4937395;28;90306;-33
2022/12/12 11:30:50;;;;;;;48.88;32.75;;;1.00;99.90;;;;;;4941514;28;89145;-31
2022/12/12 11:33:26;;;;;;;53.03;33.30;;;1.00;99.90;;;;;;4942898;28;89080;-33
2022/12/12 11:35:55;;;;;;;51.08;33.53;;;1.10;99.90;;;;;;4948336;28;89045;-34
2022/12/12 11:38:36;;;;;;;48.00;34.00;;;1.20;99.90;;;;;;4946646;28;89952;-33
2022/12/12 11:41:09;;;;;;;46.35;32.53;;;1.20;99.90;;;;;;4951989;28;89600;-33
2022/12/12 11:43:58;;;;;;;41.22;31.00;;;1.20;99.90;;;;;;4952259;28;89193;-32
2022/12/12 11:46:30;;;;;;;43.55;31.88;;;1.30;99.90;;;;;;4952695;28;87658;-33
2022/12/12 11:48:59;;;;;;;47.97;31.48;;;1.30;99.90;;;;;;4947592;28;90862;-32
2022/12/12 11:51:33;;;;;;;49.35;30.85;;;1.30;99.90;;;;;;4949738;28;89765;-34
2022/12/12 11:53:59;;;;;;;39.67;27.83;;;1.30;99.90;;;;;;4950495;28;89625;-30
2022/12/12 11:56:31;;;;;;;42.72;30.15;;;1.30;99.90;;;;;;4949210;28;88306;-33
2022/12/12 11:59:21;;;;;;;39.33;29.25;;;1.30;99.90;;;;;;4950077;28;88656;-33
2022/12/12 12:02:06;;;;;;;44.85;28.83;;;1.30;99.90;;;;;;4950084;28;90829;-32
2022/12/12 12:04:49;;;;;;;43.75;30.10;;;1.40;99.90;;;;;;4951522;28;90434;-34
2022/12/12 12:07:53;;;;;;;40.90;28.75;;;1.40;99.90;;;;;;4951792;28;88246;-33
2022/12/12 12:10:27;;;;;;;36.10;25.23;;;1.40;99.90;;;;;;4950713;28;90275;-32
2022/12/12 12:13:20;;;;;;;45.33;27.55;;;1.40;99.90;;;;;;4949216;28;89284;-33
2022/12/12 12:16:11;;;;;;;41.92;26.75;;;1.40;99.90;;;;;;4945172;28;88586;-32
2022/12/12 12:19:21;;;;;;;39.85;25.02;;;1.50;99.90;;;;;;4946998;28;89519;-32
2022/12/12 12:22:09;;;;;;;40.40;25.48;;;1.50;99.90;;;;;;4939585;28;90211;-33
2022/12/12 12:24:53;;;;;;;;;;;1.50;99.90;;;;;;4933344;28;89253;-34
2022/12/12 12:27:37;;;;;;;24.75;19.52;;;1.50;99.90;;;;;;4940115;28;89434;-34
2022/12/12 12:30:15;;;;;;;34.85;24.60;;;1.50;99.90;;;;;;4939119;28;89900;-31
2022/12/12 12:33:11;;;;;;;36.10;22.48;;;1.50;99.90;;;;;;4937392;28;89920;-34
2022/12/12 12:36:04;;;;;;;29.70;21.17;;;1.60;99.90;;;;;;4940301;28;89541;-31
2022/12/12 12:38:33;;;;;;;29.45;21.70;;;1.60;99.90;;;;;;4938571;28;89729;-34
2022/12/12 12:40:58;;;;;;;;;;;1.60;99.90;;;;;;4949577;28;88503;-34
2022/12/12 12:43:44;;;;;;;29.20;21.70;;;1.60;99.90;;;;;;4940242;28;89090;-33
2022/12/12 12:46:38;;;;;;;32.40;21.23;;;1.60;99.90;;;;;;4939277;28;89788;-31
2022/12/12 12:49:16;;;;;;;29.77;22.02;;;1.70;99.90;;;;;;4939190;28;89539;-31
2022/12/12 12:51:49;;;;;;;;;;;1.70;99.90;;;;;;4939226;28;88735;-32
2022/12/12 12:54:27;;;;;;;27.85;20.27;;;1.60;99.90;;;;;;4940063;28;90460;-34
2022/12/12 12:57:08;;;;;;;32.67;18.80;;;1.50;99.90;;;;;;4939238;28;90730;-33
2022/12/12 12:59:40;;;;;;;24.30;19.65;;;1.50;99.90;;;;;;4945586;28;91472;-31
2022/12/12 13:02:27;;;;;;;31.15;22.02;;;1.50;99.90;;;;;;4942483;28;89748;-32
2022/12/12 13:05:05;;;;;;;26.25;20.65;;;1.50;99.90;;;;;;4936581;28;90450;-33
2022/12/12 13:07:40;;;;;;;22.90;18.98;;;1.50;99.90;;;;;;4925839;28;88918;-30
2022/12/12 13:10:20;;;;;;;29.27;20.23;;;1.60;99.90;;;;;;4938150;28;90468;-32
2022/12/12 13:13:07;;;;;;;28.67;20.40;;;1.50;99.90;;;;;;4937604;28;88427;-32